Townsends Inlet, New Jersey
Current Conditions -  °F | °C
As of 12:35 AM on Saturday 25 Oct 2014 (Local Time) from KWWD Reporting Station
Clear Clear  
Wind Chill: 57°   Ceiling: Unl
Heat Index: 57°   Visibility: 10mi
Dew Point: 41°   Wind: 6mph
Humidity: 55%   Direction: 320°NW
Pressure: 29.9"   Gusts: NA
Location:  39.1517°N, 74.697°W
Report Text: KWWD 250435Z AUTO 32005KT 10SM CLR 14/05 A2990 RMK AO1
Loading
Personal Weather Stations






























Interactive Weather Map
Tropical Storm Tracking
New forecast layout! Learn more

10-Day Weather Forecast

Advertisements
Track Severe Weather on mobile